Time;durP1;ratioP1;P1;durP2;ratioP2;P2;SDS_P1;SDS_P2;PMS_P1;PMS_P2;Temp;Humidity;BMP_temperature;BMP_pressure;BME280_temperature;BME280_humidity;BME280_pressure;Samples;Min_cycle;Max_cycle;Signal;HPM_P1;HPM_P2
2022/07/30 00:01:35;;;;;;;17.85;11.38;;;29.50;99.90;;;;;;4133218;28;20042;-68
2022/07/30 00:03:39;;;;;;;16.10;10.40;;;29.60;99.90;;;;;;4135204;28;20566;-67
2022/07/30 00:05:44;;;;;;;15.25;10.45;;;29.60;99.90;;;;;;4133939;28;20053;-67
2022/07/30 00:07:49;;;;;;;16.90;10.18;;;29.60;99.90;;;;;;4134727;28;20129;-67
2022/07/30 00:09:56;;;;;;;14.70;9.50;;;29.60;99.90;;;;;;4142284;28;20153;-67
2022/07/30 00:12:02;;;;;;;18.27;10.15;;;29.80;99.90;;;;;;4138962;28;20046;-68
2022/07/30 00:14:10;;;;;;;17.02;9.93;;;29.80;99.90;;;;;;4135403;28;20045;-67
2022/07/30 00:16:15;;;;;;;16.00;9.77;;;29.80;99.90;;;;;;4135363;28;20128;-67
2022/07/30 00:18:21;;;;;;;12.32;9.65;;;29.80;99.90;;;;;;4136150;28;20475;-66
2022/07/30 00:20:28;;;;;;;12.57;9.65;;;29.80;99.90;;;;;;4135396;28;20065;-67
2022/07/30 00:22:34;;;;;;;15.35;10.32;;;29.70;99.90;;;;;;4127351;28;20536;-68
2022/07/30 00:24:41;;;;;;;11.55;9.85;;;29.80;99.90;;;;;;4127858;28;20096;-67
2022/07/30 00:26:48;;;;;;;12.27;9.20;;;29.70;99.90;;;;;;4123813;28;20052;-68
2022/07/30 00:28:53;;;;;;;13.82;10.05;;;29.70;99.90;;;;;;4137659;28;20747;-66
2022/07/30 00:30:57;;;;;;;15.82;9.90;;;29.70;99.90;;;;;;4129079;28;20046;-67
2022/07/30 00:33:05;;;;;;;13.52;10.30;;;29.70;99.90;;;;;;4138813;28;20104;-67
2022/07/30 00:35:14;;;;;;;13.35;10.32;;;29.90;99.90;;;;;;4143484;28;20126;-66
2022/07/30 00:37:22;;;;;;;12.63;9.48;;;29.80;99.90;;;;;;4135567;28;20085;-66
2022/07/30 00:39:29;;;;;;;13.45;9.65;;;30.00;99.90;;;;;;4135063;28;20109;-67
2022/07/30 00:41:36;;;;;;;18.95;9.27;;;30.10;99.90;;;;;;4137165;28;20449;-67
2022/07/30 00:43:43;;;;;;;14.90;9.90;;;29.90;99.90;;;;;;4129487;28;20815;-67
2022/07/30 00:45:49;;;;;;;14.13;9.30;;;30.00;99.90;;;;;;4134452;28;20053;-66
2022/07/30 00:47:54;;;;;;;13.13;9.18;;;30.10;99.90;;;;;;4136298;28;20523;-66
2022/07/30 00:50:02;;;;;;;15.90;9.50;;;30.00;99.90;;;;;;4135384;28;20153;-67
2022/07/30 00:52:07;;;;;;;14.27;8.95;;;30.10;99.90;;;;;;4131836;28;20046;-65
2022/07/30 00:54:12;;;;;;;13.65;9.32;;;30.30;99.90;;;;;;4130234;28;20489;-66
2022/07/30 00:56:16;;;;;;;12.48;8.70;;;30.40;99.90;;;;;;4116177;28;20057;-67
2022/07/30 00:58:23;;;;;;;16.35;10.48;;;30.50;99.90;;;;;;4122174;28;20096;-67
2022/07/30 01:00:28;;;;;;;12.15;9.10;;;30.50;99.90;;;;;;4125687;28;20069;-67
2022/07/30 01:02:34;;;;;;;13.80;9.27;;;30.40;99.90;;;;;;4128073;28;20042;-64
2022/07/30 01:04:39;;;;;;;16.10;9.13;;;30.50;99.90;;;;;;4128555;28;20058;-64
2022/07/30 01:06:44;;;;;;;12.38;8.15;;;30.50;99.90;;;;;;4130576;28;20539;-65
2022/07/30 01:08:51;;;;;;;12.15;8.70;;;30.60;99.90;;;;;;4129322;28;20153;-65
2022/07/30 01:10:56;;;;;;;15.60;8.90;;;30.70;99.90;;;;;;4130588;28;20378;-65
2022/07/30 01:13:00;;;;;;;12.27;9.10;;;30.70;99.90;;;;;;4128424;28;20050;-66
2022/07/30 01:15:15;;;;;;;15.43;9.10;;;30.70;99.90;;;;;;4130667;28;20070;-66
2022/07/30 01:17:21;;;;;;;10.50;9.30;;;30.80;99.90;;;;;;4128609;28;20046;-66
2022/07/30 01:22:08;;;;;;;15.02;10.30;;;30.80;99.90;;;;;;4127028;28;20401;-66
2022/07/30 01:24:33;;;;;;;14.65;9.63;;;31.00;99.90;;;;;;4128470;28;20480;-66
2022/07/30 01:26:37;;;;;;;12.85;10.27;;;31.00;99.90;;;;;;4130639;28;20710;-65
2022/07/30 01:28:44;;;;;;;13.73;10.57;;;31.10;99.90;;;;;;4127500;28;20043;-66
2022/07/30 01:30:54;;;;;;;12.95;9.20;;;31.10;99.90;;;;;;4152420;28;20046;-65
2022/07/30 01:33:00;;;;;;;11.18;8.80;;;31.10;99.90;;;;;;4127198;28;20046;-66
2022/07/30 01:35:06;;;;;;;15.65;9.50;;;31.20;99.90;;;;;;4128646;28;20042;-67
2022/07/30 01:37:14;;;;;;;10.95;9.23;;;31.20;99.90;;;;;;4088249;29;20138;-66
2022/07/30 01:39:20;;;;;;;12.27;9.48;;;31.30;99.90;;;;;;4128229;28;20126;-66
2022/07/30 01:41:25;;;;;;;12.25;9.40;;;31.40;99.90;;;;;;4129135;28;20128;-66
2022/07/30 01:43:29;;;;;;;13.63;10.13;;;31.40;99.90;;;;;;4129405;28;20058;-66
2022/07/30 01:45:35;;;;;;;11.68;8.90;;;31.40;99.90;;;;;;4130236;28;20093;-66
2022/07/30 01:47:48;;;;;;;14.95;9.52;;;31.40;99.90;;;;;;4129455;28;20048;-66
2022/07/30 01:49:56;;;;;;;12.23;9.05;;;31.50;99.90;;;;;;4129304;28;20074;-66
2022/07/30 01:52:01;;;;;;;11.32;8.90;;;31.60;99.90;;;;;;4154338;28;20484;-66
2022/07/30 01:54:10;;;;;;;13.85;9.30;;;31.60;99.90;;;;;;4129723;28;20101;-66
2022/07/30 01:56:17;;;;;;;10.57;9.48;;;31.70;99.90;;;;;;4130350;28;20454;-66
2022/07/30 01:58:31;;;;;;;12.50;9.48;;;31.70;99.90;;;;;;4113020;28;20126;-66
2022/07/30 02:00:45;;;;;;;12.00;8.98;;;31.80;99.90;;;;;;4128490;28;20134;-66
2022/07/30 02:02:53;;;;;;;12.48;9.10;;;31.70;99.90;;;;;;4130577;28;20054;-66
2022/07/30 02:04:59;;;;;;;11.30;8.43;;;31.70;99.90;;;;;;4128584;28;20038;-66
2022/07/30 02:07:34;;;;;;;12.00;8.35;;;31.70;99.90;;;;;;4128312;28;20074;-66
2022/07/30 02:09:48;;;;;;;9.63;8.40;;;31.80;99.90;;;;;;4131087;28;20054;-66
2022/07/30 02:14:31;;;;;;;11.07;8.23;;;31.90;99.90;;;;;;4136429;28;20077;-65
2022/07/30 02:16:38;;;;;;;12.43;8.50;;;32.00;99.90;;;;;;4132253;28;20684;-65
2022/07/30 02:19:05;;;;;;;13.43;9.27;;;32.00;99.90;;;;;;4131195;28;20391;-67
2022/07/30 02:21:12;;;;;;;13.18;9.95;;;32.10;99.90;;;;;;4162936;28;20054;-66
2022/07/30 02:23:16;;;;;;;11.10;9.30;;;31.90;99.90;;;;;;4132003;28;20054;-66
2022/07/30 02:25:23;;;;;;;11.15;9.80;;;32.00;99.90;;;;;;4132455;28;20054;-66
2022/07/30 02:27:29;;;;;;;10.77;9.65;;;32.00;99.90;;;;;;4129906;28;20133;-66
2022/07/30 02:29:36;;;;;;;15.73;10.52;;;32.00;99.90;;;;;;4148505;28;20459;-66
2022/07/30 02:31:44;;;;;;;11.40;9.65;;;32.00;99.90;;;;;;4153572;28;20037;-66
2022/07/30 02:33:49;;;;;;;12.65;9.88;;;32.10;99.90;;;;;;4131055;28;20493;-66
2022/07/30 02:35:54;;;;;;;14.95;9.43;;;32.10;99.90;;;;;;4134929;28;20534;-67
2022/07/30 02:38:01;;;;;;;11.88;9.30;;;32.20;99.90;;;;;;4136706;28;20497;-63
2022/07/30 02:40:07;;;;;;;14.98;9.15;;;32.30;99.90;;;;;;4134730;28;20072;-66
2022/07/30 02:42:12;;;;;;;15.02;10.93;;;32.40;99.90;;;;;;4134879;28;20141;-65
2022/07/30 02:44:18;;;;;;;12.63;10.48;;;32.40;99.90;;;;;;4146880;28;20046;-65
2022/07/30 02:46:24;;;;;;;12.40;9.23;;;32.50;99.90;;;;;;4135571;28;20500;-65
2022/07/30 02:48:48;;;;;;;12.60;9.10;;;32.20;99.90;;;;;;4132935;28;20034;-66
2022/07/30 02:50:55;;;;;;;11.23;10.02;;;32.20;99.90;;;;;;4134217;28;20045;-67
2022/07/30 02:53:00;;;;;;;10.30;8.93;;;32.20;99.90;;;;;;4132007;28;20081;-67
2022/07/30 02:55:09;;;;;;;10.98;9.82;;;32.20;99.90;;;;;;4133841;28;20052;-67
2022/07/30 02:57:16;;;;;;;15.32;11.07;;;32.30;99.90;;;;;;4133856;28;20046;-66
2022/07/30 02:59:22;;;;;;;14.57;9.70;;;32.30;99.90;;;;;;4143711;28;20066;-67
2022/07/30 03:01:27;;;;;;;12.75;9.50;;;32.50;99.90;;;;;;4133871;28;20133;-65
2022/07/30 03:03:35;;;;;;;11.10;8.82;;;32.60;99.90;;;;;;4122931;28;20097;-66
2022/07/30 03:05:40;;;;;;;8.95;8.15;;;32.80;99.90;;;;;;4118023;28;20096;-65
2022/07/30 03:07:45;;;;;;;9.20;7.68;;;32.70;99.70;;;;;;4127032;28;20034;-66
2022/07/30 03:09:49;;;;;;;12.38;9.23;;;32.80;99.50;;;;;;4140878;28;20511;-66
2022/07/30 03:11:55;;;;;;;12.68;8.75;;;32.80;99.40;;;;;;4117115;28;20403;-67
2022/07/30 03:13:59;;;;;;;9.80;7.65;;;32.90;99.40;;;;;;4131773;28;20046;-67
2022/07/30 03:16:06;;;;;;;9.95;7.70;;;33.00;99.20;;;;;;4114749;28;20066;-66
2022/07/30 03:18:14;;;;;;;11.38;8.20;;;33.10;99.10;;;;;;4134112;28;20039;-65
2022/07/30 03:20:25;;;;;;;10.35;8.57;;;33.10;99.00;;;;;;4155461;28;20405;-65
2022/07/30 03:22:30;;;;;;;9.85;8.20;;;33.10;99.10;;;;;;4134901;28;20050;-66
2022/07/30 03:24:37;;;;;;;8.40;7.50;;;33.10;98.30;;;;;;4148304;28;20481;-64
2022/07/30 03:26:46;;;;;;;9.35;8.05;;;32.90;98.30;;;;;;4159340;28;20432;-65
2022/07/30 03:28:52;;;;;;;8.68;7.82;;;32.90;98.20;;;;;;4136000;28;20088;-66
2022/07/30 03:30:57;;;;;;;10.07;7.85;;;33.10;98.10;;;;;;4133746;28;20411;-64
2022/07/30 03:33:03;;;;;;;8.57;7.78;;;33.20;97.80;;;;;;4132360;28;20087;-65
2022/07/30 03:35:10;;;;;;;8.68;7.53;;;33.40;97.70;;;;;;4163400;28;20048;-66
2022/07/30 03:37:21;;;;;;;7.78;6.75;;;33.50;96.90;;;;;;4133848;28;20050;-66
2022/07/30 03:39:27;;;;;;;8.60;6.50;;;33.50;96.20;;;;;;4135265;28;20096;-66
2022/07/30 03:41:34;;;;;;;8.50;6.68;;;33.50;95.60;;;;;;4135194;28;20058;-64
2022/07/30 03:43:42;;;;;;;8.05;6.50;;;33.50;96.10;;;;;;4135306;28;20069;-64
2022/07/30 03:45:49;;;;;;;9.30;6.65;;;33.60;95.90;;;;;;4151891;28;20580;-64
2022/07/30 03:47:56;;;;;;;8.00;6.63;;;33.70;95.70;;;;;;4130626;28;20045;-66
2022/07/30 03:50:01;;;;;;;10.15;6.78;;;33.80;95.60;;;;;;4131797;28;20056;-66
2022/07/30 03:52:10;;;;;;;7.78;6.82;;;33.70;95.90;;;;;;4132599;28;20060;-64
2022/07/30 03:54:17;;;;;;;8.20;6.70;;;33.80;96.10;;;;;;4135232;28;20046;-65
2022/07/30 03:56:34;;;;;;;11.40;6.97;;;33.80;95.00;;;;;;4127664;28;20118;-64
2022/07/30 03:58:46;;;;;;;9.60;7.20;;;33.80;95.40;;;;;;4125798;28;20046;-66
2022/07/30 04:00:51;;;;;;;12.95;7.20;;;33.90;95.20;;;;;;4126946;28;20096;-66
2022/07/30 04:02:57;;;;;;;7.40;6.53;;;34.00;94.50;;;;;;4162126;28;20436;-64
2022/07/30 04:05:21;;;;;;;7.93;6.47;;;34.00;94.50;;;;;;4129302;28;20195;-65
2022/07/30 04:07:26;;;;;;;7.63;6.28;;;34.00;94.30;;;;;;4127194;28;20054;-65
2022/07/30 04:09:31;;;;;;;10.40;6.28;;;34.00;94.30;;;;;;4127123;28;20063;-65
2022/07/30 04:11:49;;;;;;;7.45;5.90;;;34.00;94.10;;;;;;4125755;28;20038;-65
2022/07/30 04:13:59;;;;;;;8.57;6.18;;;33.90;94.40;;;;;;4127031;28;20525;-66
2022/07/30 04:16:18;;;;;;;8.35;6.00;;;34.00;94.40;;;;;;4128353;28;20042;-65
2022/07/30 04:18:50;;;;;;;9.18;7.00;;;34.00;94.10;;;;;;4127548;28;20137;-65
2022/07/30 04:20:55;;;;;;;7.78;6.30;;;33.90;94.80;;;;;;4129059;28;20046;-66
2022/07/30 04:23:00;;;;;;;7.78;6.13;;;34.00;95.10;;;;;;4125502;28;20046;-66
2022/07/30 04:25:06;;;;;;;7.13;5.75;;;34.10;94.00;;;;;;4126984;28;20070;-65
2022/07/30 04:27:11;;;;;;;10.82;6.78;;;33.90;93.60;;;;;;4111557;28;20114;-65
2022/07/30 04:29:16;;;;;;;12.23;9.18;;;33.90;93.60;;;;;;4111076;28;20043;-65
2022/07/30 04:31:28;;;;;;;18.35;13.50;;;34.00;93.90;;;;;;4125427;28;20035;-65
2022/07/30 04:33:44;;;;;;;30.50;26.27;;;33.50;94.10;;;;;;4151457;28;20038;-65
2022/07/30 04:35:54;;;;;;;16.17;12.27;;;33.40;94.70;;;;;;4125381;28;20178;-64
2022/07/30 04:38:09;;;;;;;15.23;13.00;;;33.70;94.80;;;;;;4125996;28;20127;-64
2022/07/30 04:40:16;;;;;;;11.07;7.80;;;33.80;94.70;;;;;;4154464;28;20568;-65
2022/07/30 04:42:21;;;;;;;9.45;7.20;;;34.00;94.40;;;;;;4127704;28;20054;-65
2022/07/30 04:44:41;;;;;;;9.82;6.32;;;33.90;94.00;;;;;;4130171;28;20046;-64
2022/07/30 04:47:02;;;;;;;9.02;7.15;;;34.00;93.90;;;;;;4132586;28;20658;-64
2022/07/30 04:49:11;;;;;;;7.63;6.63;;;34.00;93.40;;;;;;4129280;28;20047;-64
2022/07/30 04:51:33;;;;;;;7.80;6.95;;;34.10;93.80;;;;;;4129722;28;20344;-65
2022/07/30 04:53:40;;;;;;;9.27;8.27;;;34.10;94.10;;;;;;4136183;28;20506;-64
2022/07/30 04:55:46;;;;;;;9.68;7.18;;;33.60;94.40;;;;;;4138305;28;20120;-63
2022/07/30 04:57:54;;;;;;;11.82;6.78;;;33.90;94.20;;;;;;4154426;28;20037;-64
2022/07/30 04:59:58;;;;;;;9.98;6.88;;;34.00;93.90;;;;;;4129573;28;20114;-64
2022/07/30 05:02:04;;;;;;;9.05;6.53;;;34.10;93.90;;;;;;4127660;28;20045;-64
2022/07/30 05:04:09;;;;;;;10.05;6.40;;;34.20;93.40;;;;;;4130001;28;20495;-64
2022/07/30 05:06:13;;;;;;;7.88;6.05;;;34.40;93.30;;;;;;4129575;28;20069;-64
2022/07/30 05:08:18;;;;;;;7.82;5.88;;;34.60;93.30;;;;;;4129814;28;20445;-64
2022/07/30 05:10:25;;;;;;;10.18;6.50;;;34.70;92.70;;;;;;4129005;28;20595;-64
2022/07/30 05:12:36;;;;;;;13.75;6.60;;;34.70;92.60;;;;;;4130162;28;20054;-64
2022/07/30 05:14:41;;;;;;;7.68;6.85;;;34.90;92.70;;;;;;4128002;28;20089;-65
2022/07/30 05:16:53;;;;;;;8.13;6.38;;;34.80;92.40;;;;;;4130913;28;20038;-65
2022/07/30 05:18:59;;;;;;;6.72;6.03;;;35.00;92.30;;;;;;4113572;28;20106;-64
2022/07/30 05:21:11;;;;;;;7.88;5.32;;;35.10;92.30;;;;;;4130633;28;20457;-65
2022/07/30 05:23:19;;;;;;;7.88;6.40;;;35.20;92.10;;;;;;4128628;28;20125;-64
2022/07/30 05:25:33;;;;;;;6.30;5.70;;;35.30;92.00;;;;;;4129003;28;20073;-64
2022/07/30 05:27:58;;;;;;;7.57;5.90;;;35.40;92.00;;;;;;4130838;28;20038;-65
2022/07/30 05:30:06;;;;;;;7.32;6.00;;;35.30;92.00;;;;;;4129149;28;20133;-65
2022/07/30 05:32:19;;;;;;;6.03;5.43;;;35.20;92.20;;;;;;4129639;28;20149;-64
2022/07/30 05:34:27;;;;;;;8.38;6.18;;;35.00;91.60;;;;;;4129024;28;20504;-64
2022/07/30 05:36:34;;;;;;;9.15;5.53;;;35.20;91.80;;;;;;4129242;28;20604;-64
2022/07/30 05:38:41;;;;;;;6.13;5.53;;;35.30;90.90;;;;;;4128060;28;20053;-63
2022/07/30 05:41:05;;;;;;;10.25;5.47;;;35.30;89.80;;;;;;4130262;28;20049;-64
2022/07/30 05:43:45;;;;;;;5.85;5.25;;;35.30;90.00;;;;;;4128031;28;20464;-64
2022/07/30 05:45:58;;;;;;;9.15;5.20;;;35.20;89.50;;;;;;4129536;28;20046;-64
2022/07/30 05:48:03;;;;;;;8.48;5.40;;;35.10;89.50;;;;;;4131197;28;20047;-63
2022/07/30 05:50:12;;;;;;;5.85;5.22;;;35.10;88.10;;;;;;4129673;28;20428;-63
2022/07/30 05:52:17;;;;;;;7.50;5.20;;;34.90;89.70;;;;;;4131255;28;20057;-64
2022/07/30 05:54:22;;;;;;;6.35;5.40;;;35.00;89.50;;;;;;4127871;28;20413;-63
2022/07/30 05:56:41;;;;;;;5.43;4.93;;;35.10;90.20;;;;;;4130698;28;20455;-65
2022/07/30 05:58:49;;;;;;;5.88;5.03;;;35.30;89.80;;;;;;4130222;28;20046;-63
2022/07/30 06:01:07;;;;;;;7.28;5.13;;;35.30;88.10;;;;;;4129801;28;20085;-64
2022/07/30 06:03:15;;;;;;;6.93;4.45;;;35.50;88.70;;;;;;4096921;29;20043;-65
2022/07/30 06:05:39;;;;;;;5.43;4.47;;;35.60;86.30;;;;;;4131279;28;20074;-64
2022/07/30 06:07:43;;;;;;;5.57;4.43;;;35.50;83.60;;;;;;4129975;28;20054;-65
2022/07/30 06:09:59;;;;;;;6.32;5.07;;;35.50;85.00;;;;;;4129661;28;20086;-65
2022/07/30 06:12:04;;;;;;;8.02;5.07;;;35.50;85.40;;;;;;4131463;28;20493;-64
2022/07/30 06:14:09;;;;;;;9.40;5.25;;;35.60;86.20;;;;;;4129871;28;20042;-65
2022/07/30 06:16:18;;;;;;;6.68;5.95;;;35.70;86.60;;;;;;4130643;28;20093;-65
2022/07/30 06:18:24;;;;;;;7.82;5.53;;;35.80;86.80;;;;;;4128099;28;20069;-65
2022/07/30 06:20:29;;;;;;;8.18;5.60;;;35.80;87.50;;;;;;4129354;28;20137;-65
2022/07/30 06:22:47;;;;;;;7.10;5.20;;;35.90;87.50;;;;;;4114632;28;20047;-65
2022/07/30 06:24:59;;;;;;;7.65;5.35;;;35.90;86.70;;;;;;4113667;28;20057;-64
2022/07/30 06:27:05;;;;;;;7.70;5.20;;;35.90;86.20;;;;;;4115936;28;20059;-65
2022/07/30 06:29:13;;;;;;;6.13;5.38;;;35.80;87.30;;;;;;4129952;28;20048;-63
2022/07/30 06:31:18;;;;;;;6.57;4.95;;;35.80;86.60;;;;;;4129697;28;20461;-63
2022/07/30 06:33:22;;;;;;;6.00;5.25;;;35.60;87.00;;;;;;4114825;28;20047;-63
2022/07/30 06:35:32;;;;;;;6.60;5.38;;;35.60;87.60;;;;;;4129299;28;20069;-63
2022/07/30 06:37:37;;;;;;;8.35;5.47;;;35.80;87.10;;;;;;4130022;28;20046;-63
2022/07/30 06:40:05;;;;;;;8.27;5.63;;;35.70;87.50;;;;;;4145823;28;20050;-63
2022/07/30 06:42:33;;;;;;;7.07;5.32;;;35.60;88.40;;;;;;4114795;28;20047;-64
2022/07/30 06:44:58;;;;;;;6.28;5.28;;;35.60;87.80;;;;;;4114639;28;20050;-64
2022/07/30 06:47:11;;;;;;;7.10;5.22;;;35.70;87.30;;;;;;4158268;28;20055;-64
2022/07/30 06:49:18;;;;;;;10.10;5.85;;;35.80;87.80;;;;;;4136421;28;20662;-64
2022/07/30 06:51:22;;;;;;;9.07;5.70;;;35.80;87.50;;;;;;4137412;28;20094;-64
2022/07/30 06:53:27;;;;;;;9.68;5.88;;;35.70;86.60;;;;;;4131421;28;20129;-63
2022/07/30 06:55:46;;;;;;;5.90;5.40;;;35.50;87.80;;;;;;4135231;28;20097;-63
2022/07/30 06:57:51;;;;;;;8.07;5.65;;;35.20;87.10;;;;;;4172242;28;20046;-63
2022/07/30 07:00:15;;;;;;;6.20;5.43;;;35.10;87.50;;;;;;4137644;28;20061;-64
2022/07/30 07:02:21;;;;;;;9.20;5.45;;;35.30;88.00;;;;;;4137814;28;20136;-65
2022/07/30 07:04:38;;;;;;;7.07;5.10;;;35.40;87.90;;;;;;4137855;28;20050;-65
2022/07/30 07:06:42;;;;;;;6.38;5.78;;;35.50;87.50;;;;;;4143067;28;20515;-65
2022/07/30 07:08:58;;;;;;;8.35;5.47;;;35.70;86.90;;;;;;4145141;28;20049;-65
2022/07/30 07:11:13;;;;;;;6.85;5.55;;;35.90;86.30;;;;;;4145052;28;20078;-64
2022/07/30 07:13:22;;;;;;;8.23;5.28;;;35.90;85.80;;;;;;4145162;28;20091;-65
2022/07/30 07:15:31;;;;;;;7.38;5.40;;;36.00;86.10;;;;;;4144640;28;20050;-64
2022/07/30 07:17:43;;;;;;;6.00;5.47;;;36.20;86.90;;;;;;4135504;28;20038;-64
2022/07/30 07:20:04;;;;;;;6.47;5.88;;;36.20;87.40;;;;;;4129601;28;20078;-64
2022/07/30 07:22:22;;;;;;;6.30;5.25;;;36.40;87.30;;;;;;4125681;28;20046;-64
2022/07/30 07:24:27;;;;;;;5.95;5.30;;;36.60;87.40;;;;;;4127652;28;20066;-64
2022/07/30 07:26:40;;;;;;;5.72;5.22;;;36.80;87.10;;;;;;4125072;28;20350;-64
2022/07/30 07:28:47;;;;;;;6.15;5.32;;;36.90;86.80;;;;;;4127838;28;20116;-64
2022/07/30 07:30:52;;;;;;;6.72;5.30;;;36.90;86.80;;;;;;4130079;28;20394;-65
2022/07/30 07:32:56;;;;;;;6.95;5.65;;;36.70;87.00;;;;;;4127505;28;20077;-63
2022/07/30 07:35:07;;;;;;;6.15;4.80;;;36.70;87.20;;;;;;4127328;28;20129;-64
2022/07/30 07:37:15;;;;;;;7.47;5.63;;;36.80;87.00;;;;;;4127614;28;20505;-64
2022/07/30 07:39:21;;;;;;;5.20;4.70;;;36.70;86.80;;;;;;4127223;28;20042;-64
2022/07/30 07:41:26;;;;;;;8.15;5.20;;;36.70;87.20;;;;;;4125940;28;20634;-63
2022/07/30 07:43:31;;;;;;;5.70;5.03;;;36.80;87.00;;;;;;4126382;28;20097;-64
2022/07/30 07:45:38;;;;;;;5.55;5.05;;;36.70;87.10;;;;;;4111428;28;20526;-64
2022/07/30 07:47:46;;;;;;;6.30;5.10;;;36.60;87.10;;;;;;4126150;28;20093;-64
2022/07/30 07:50:17;;;;;;;7.28;5.22;;;36.40;84.90;;;;;;4126507;28;20627;-64
2022/07/30 07:52:23;;;;;;;5.70;5.05;;;36.30;85.60;;;;;;4125102;28;20085;-64
2022/07/30 07:54:30;;;;;;;5.57;5.07;;;36.20;86.50;;;;;;4133990;28;20196;-64
2022/07/30 07:56:35;;;;;;;6.78;5.25;;;36.20;86.80;;;;;;4126381;28;20093;-64
2022/07/30 07:58:41;;;;;;;5.90;4.80;;;36.20;87.70;;;;;;4129640;28;20058;-63
2022/07/30 08:00:48;;;;;;;6.72;5.05;;;36.30;86.70;;;;;;4130649;28;20050;-63
2022/07/30 08:02:57;;;;;;;8.50;5.00;;;36.40;86.70;;;;;;4131173;28;20069;-63
2022/07/30 08:05:05;;;;;;;6.45;5.28;;;36.30;86.10;;;;;;4130213;28;20732;-63
2022/07/30 08:07:16;;;;;;;6.07;5.13;;;36.30;86.80;;;;;;4132482;28;20050;-64
2022/07/30 08:09:32;;;;;;;6.00;5.30;;;36.30;87.20;;;;;;4131577;28;20056;-62
2022/07/30 08:12:07;;;;;;;5.65;5.03;;;36.50;87.20;;;;;;4132096;28;20383;-64
2022/07/30 08:14:25;;;;;;;9.93;5.30;;;36.60;87.10;;;;;;4114997;28;20074;-65
2022/07/30 08:16:49;;;;;;;6.75;5.45;;;36.50;87.10;;;;;;4135550;28;20559;-62
2022/07/30 08:19:07;;;;;;;5.80;5.20;;;36.50;87.10;;;;;;4136356;28;20050;-63
2022/07/30 08:21:25;;;;;;;5.88;5.28;;;36.40;87.90;;;;;;4130806;28;20463;-63
2022/07/30 08:23:30;;;;;;;7.00;5.45;;;36.40;88.20;;;;;;4134126;28;20074;-64
2022/07/30 08:25:35;;;;;;;5.95;5.35;;;36.20;88.50;;;;;;4134921;28;20066;-64
2022/07/30 08:27:39;;;;;;;5.75;5.10;;;36.20;88.70;;;;;;4144645;28;20054;-64
2022/07/30 08:29:45;;;;;;;9.70;5.60;;;36.10;88.40;;;;;;4139417;28;20038;-64
2022/07/30 08:31:49;;;;;;;6.10;5.00;;;36.10;88.90;;;;;;4140972;28;20044;-64
2022/07/30 08:33:57;;;;;;;9.77;5.10;;;36.10;89.20;;;;;;4143756;28;20521;-65
2022/07/30 08:36:04;;;;;;;5.43;4.93;;;36.20;89.20;;;;;;4140297;28;20042;-64
2022/07/30 08:38:15;;;;;;;5.53;5.00;;;36.40;88.80;;;;;;4164017;28;20050;-66
2022/07/30 08:40:20;;;;;;;6.95;5.43;;;36.40;88.70;;;;;;4138402;28;20037;-65
2022/07/30 08:42:35;;;;;;;7.55;5.57;;;36.50;88.80;;;;;;4138887;28;20105;-64
2022/07/30 08:44:42;;;;;;;7.88;5.60;;;36.50;88.60;;;;;;4138409;28;20093;-65
2022/07/30 08:46:48;;;;;;;5.85;5.28;;;36.50;87.80;;;;;;4136362;28;20046;-65
2022/07/30 08:49:04;;;;;;;7.93;5.50;;;36.50;88.10;;;;;;4136635;28;20050;-67
2022/07/30 08:51:16;;;;;;;6.55;5.80;;;36.40;88.10;;;;;;4172089;28;20094;-67
2022/07/30 08:53:43;;;;;;;7.95;5.30;;;36.40;88.50;;;;;;4110064;28;20134;-66
2022/07/30 08:55:48;;;;;;;7.35;5.93;;;36.30;88.90;;;;;;4131445;28;20085;-66
2022/07/30 08:57:54;;;;;;;8.05;6.13;;;36.20;89.40;;;;;;4131990;28;20042;-65
2022/07/30 08:59:59;;;;;;;6.35;5.75;;;35.90;90.20;;;;;;4137115;28;20048;-65
2022/07/30 09:02:04;;;;;;;6.43;5.82;;;35.90;90.20;;;;;;4137092;28;20529;-65
2022/07/30 09:04:28;;;;;;;6.45;5.80;;;35.80;90.30;;;;;;4118728;28;20065;-65
2022/07/30 09:06:33;;;;;;;12.48;6.72;;;35.70;90.70;;;;;;4137224;28;20054;-65
2022/07/30 09:08:39;;;;;;;27.52;11.52;;;35.70;91.90;;;;;;4147252;28;20046;-65
2022/07/30 09:10:47;;;;;;;15.88;9.32;;;35.40;96.60;;;;;;4146566;28;20066;-65
2022/07/30 09:12:56;;;;;;;16.65;9.45;;;35.00;96.20;;;;;;4180293;28;20049;-64
2022/07/30 09:15:10;;;;;;;12.25;7.10;;;34.30;97.20;;;;;;4147050;28;20086;-64
2022/07/30 09:17:18;;;;;;;14.85;6.07;;;34.10;94.90;;;;;;4142188;28;20046;-63
2022/07/30 09:19:25;;;;;;;13.80;5.25;;;33.90;95.10;;;;;;4133620;28;20046;-63
2022/07/30 09:21:31;;;;;;;10.32;5.88;;;33.90;95.30;;;;;;4146639;28;20496;-63
2022/07/30 09:24:10;;;;;;;16.45;6.25;;;33.80;95.10;;;;;;4138303;28;20465;-63
2022/07/30 09:26:31;;;;;;;8.63;5.93;;;33.40;95.90;;;;;;4131936;28;20453;-63
2022/07/30 09:28:48;;;;;;;7.85;6.45;;;33.40;96.20;;;;;;4132279;28;20201;-64
2022/07/30 09:31:13;;;;;;;8.27;5.85;;;33.60;96.70;;;;;;4131885;28;20820;-63
2022/07/30 09:33:38;;;;;;;10.00;7.00;;;33.70;97.40;;;;;;4132006;28;20048;-63
2022/07/30 09:35:55;;;;;;;13.15;7.93;;;33.80;98.50;;;;;;4131652;28;20042;-69
2022/07/30 09:38:12;;;;;;;12.90;6.95;;;33.70;98.80;;;;;;4131705;28;20054;-69
2022/07/30 09:40:29;;;;;;;9.02;7.38;;;33.80;98.20;;;;;;4131708;28;20126;-69
2022/07/30 09:43:06;;;;;;;11.95;7.68;;;33.70;99.20;;;;;;4157550;28;20054;-69
2022/07/30 09:45:14;;;;;;;12.40;8.52;;;33.60;99.90;;;;;;4130700;28;20061;-69
2022/07/30 09:47:36;;;;;;;12.80;8.57;;;33.50;99.90;;;;;;4113368;28;20078;-69
2022/07/30 09:49:41;;;;;;;12.48;8.57;;;33.30;99.90;;;;;;4131905;28;20061;-69
2022/07/30 09:51:50;;;;;;;11.55;9.10;;;33.20;99.90;;;;;;4129894;28;20052;-68
2022/07/30 09:54:06;;;;;;;11.30;8.65;;;33.40;99.90;;;;;;4130331;28;20058;-69
2022/07/30 09:56:27;;;;;;;12.27;9.00;;;33.40;99.90;;;;;;4130336;28;20038;-69
2022/07/30 09:58:38;;;;;;;9.57;8.57;;;33.50;99.90;;;;;;4130673;28;20065;-69
2022/07/30 10:00:49;;;;;;;10.32;8.75;;;33.50;99.90;;;;;;4125901;28;20372;-69
2022/07/30 10:03:20;;;;;;;13.50;8.23;;;33.50;99.90;;;;;;4143695;28;20547;-69
2022/07/30 10:05:58;;;;;;;9.60;8.70;;;33.60;99.90;;;;;;4162740;28;20507;-69
2022/07/30 10:08:08;;;;;;;10.88;8.35;;;33.60;99.90;;;;;;4144559;28;20042;-69
2022/07/30 10:10:22;;;;;;;12.40;7.97;;;33.60;99.90;;;;;;4144122;28;20054;-69
2022/07/30 10:12:30;;;;;;;11.00;8.43;;;33.50;99.90;;;;;;4144381;28;20078;-70
2022/07/30 10:14:45;;;;;;;10.82;8.95;;;33.50;99.90;;;;;;4144406;28;20065;-69
2022/07/30 10:16:52;;;;;;;10.13;8.27;;;33.40;99.90;;;;;;4140325;28;20643;-68
2022/07/30 10:18:58;;;;;;;15.95;9.00;;;33.40;99.90;;;;;;4127618;28;20056;-69
2022/07/30 10:21:28;;;;;;;10.45;9.13;;;33.40;99.90;;;;;;4126570;28;20050;-69
2022/07/30 10:23:58;;;;;;;15.88;9.80;;;33.50;99.90;;;;;;4128653;28;20967;-69
2022/07/30 10:26:15;;;;;;;10.57;7.95;;;33.30;99.90;;;;;;4129217;28;20042;-69
2022/07/30 10:28:34;;;;;;;9.35;7.63;;;33.20;99.90;;;;;;4129060;28;20053;-69
2022/07/30 10:30:44;;;;;;;11.80;7.95;;;33.00;99.90;;;;;;4139366;28;20045;-69
2022/07/30 10:32:51;;;;;;;10.40;7.30;;;32.80;99.90;;;;;;4145449;28;20041;-69
2022/07/30 10:34:58;;;;;;;7.43;6.70;;;32.80;99.90;;;;;;4141627;28;20401;-69
2022/07/30 10:37:03;;;;;;;10.30;6.97;;;32.80;99.90;;;;;;4128442;28;20124;-69
2022/07/30 10:39:10;;;;;;;9.32;7.18;;;32.80;99.90;;;;;;4130424;28;20035;-69
2022/07/30 10:41:39;;;;;;;9.93;6.50;;;32.60;99.90;;;;;;4130444;28;20125;-70
2022/07/30 10:44:12;;;;;;;6.95;6.25;;;32.70;99.90;;;;;;4128607;28;20054;-70
2022/07/30 10:46:49;;;;;;;11.85;7.03;;;32.60;99.90;;;;;;4130273;28;20599;-70
2022/07/30 10:49:06;;;;;;;9.98;7.20;;;32.60;99.90;;;;;;4129295;28;20089;-70
2022/07/30 10:51:22;;;;;;;8.82;6.88;;;32.60;99.90;;;;;;4130555;28;20137;-70
2022/07/30 10:53:47;;;;;;;10.45;7.63;;;32.60;99.90;;;;;;4131460;28;20054;-70
2022/07/30 10:56:18;;;;;;;8.77;7.88;;;32.70;99.90;;;;;;4127693;28;20070;-70
2022/07/30 10:58:28;;;;;;;8.93;8.02;;;32.60;99.90;;;;;;4155028;28;20052;-71
2022/07/30 11:00:54;;;;;;;14.68;8.57;;;32.60;99.90;;;;;;4129599;28;20039;-68
2022/07/30 11:03:18;;;;;;;11.45;7.90;;;32.60;99.90;;;;;;4132249;28;20390;-68
2022/07/30 11:05:24;;;;;;;9.02;7.45;;;32.50;99.90;;;;;;4153069;28;20547;-67
2022/07/30 11:07:48;;;;;;;8.15;7.35;;;32.60;99.90;;;;;;4130570;28;20101;-69
2022/07/30 11:09:59;;;;;;;8.65;7.18;;;32.60;99.90;;;;;;4127997;28;20169;-71
2022/07/30 11:12:13;;;;;;;9.02;7.53;;;32.60;99.90;;;;;;4130355;28;20047;-71
2022/07/30 11:14:19;;;;;;;9.60;7.18;;;32.60;99.90;;;;;;4130497;28;20125;-71
2022/07/30 11:17:01;;;;;;;12.68;8.85;;;32.60;99.90;;;;;;4128531;28;20101;-71
2022/07/30 11:19:23;;;;;;;16.13;10.88;;;32.60;99.90;;;;;;4130304;28;20061;-71
2022/07/30 11:21:47;;;;;;;15.95;12.82;;;32.60;99.90;;;;;;4127906;28;20050;-71